createdAt,value
2019-04-27T00:01:17.781Z,17.70
2019-04-27T00:03:55.581Z,17.17
2019-04-27T00:06:23.930Z,18.40
2019-04-27T00:08:53.520Z,18.17
2019-04-27T00:11:22.993Z,16.60
2019-04-27T00:13:49.701Z,16.43
2019-04-27T00:16:19.876Z,16.70
2019-04-27T00:19:04.976Z,16.93
2019-04-27T00:21:49.605Z,16.90
2019-04-27T00:24:17.272Z,14.67
2019-04-27T00:26:45.545Z,18.23
2019-04-27T00:29:13.604Z,22.67
2019-04-27T00:31:40.170Z,21.57
2019-04-27T00:34:06.679Z,23.43
2019-04-27T00:36:40.782Z,24.43
2019-04-27T00:39:14.853Z,22.43
2019-04-27T00:41:42.887Z,24.63
2019-04-27T00:44:09.478Z,24.77
2019-04-27T00:46:35.839Z,22.57
2019-04-27T00:49:03.685Z,20.50
2019-04-27T00:51:30.209Z,18.67
2019-04-27T00:53:56.594Z,18.40
2019-04-27T00:56:30.870Z,18.30
2019-04-27T00:58:59.146Z,16.40
2019-04-27T01:01:30.198Z,16.67
2019-04-27T01:03:58.488Z,16.50
2019-04-27T01:06:25.034Z,16.93
2019-04-27T01:08:51.545Z,19.50
2019-04-27T01:11:19.531Z,20.13
2019-04-27T01:13:45.847Z,18.50
2019-04-27T01:16:13.215Z,18.33
2019-04-27T01:18:40.463Z,18.30
2019-04-27T01:21:06.891Z,17.80
2019-04-27T01:26:01.051Z,22.77
2019-04-27T01:28:32.357Z,22.63
2019-04-27T01:31:00.721Z,25.77
2019-04-27T01:33:28.318Z,31.47
2019-04-27T01:35:55.275Z,25.23
2019-04-27T01:38:21.689Z,20.17
2019-04-27T01:40:49.715Z,20.37
2019-04-27T01:43:16.320Z,20.13
2019-04-27T01:45:42.778Z,19.77
2019-04-27T01:48:22.553Z,19.17
2019-04-27T01:50:39.054Z,19.30
2019-04-27T01:53:05.534Z,16.97
2019-04-27T01:55:31.879Z,16.07
2019-04-27T01:57:58.577Z,19.80
2019-04-27T02:00:33.618Z,20.63
2019-04-27T02:03:01.930Z,20.10
2019-04-27T02:05:33.215Z,21.93
2019-04-27T02:08:00.791Z,20.10
2019-04-27T02:10:27.143Z,20.23
2019-04-27T02:12:54.620Z,20.20
2019-04-27T02:15:21.019Z,19.13
2019-04-27T02:17:50.685Z,20.27
2019-04-27T02:20:15.639Z,20.20
2019-04-27T02:22:41.979Z,17.57
2019-04-27T02:25:09.035Z,18.33
2019-04-27T02:27:38.903Z,22.20
2019-04-27T02:30:21.140Z,20.07
2019-04-27T02:32:51.939Z,17.67
2019-04-27T02:35:19.339Z,18.20
2019-04-27T02:37:45.888Z,18.23
2019-04-27T02:40:35.775Z,18.83
2019-04-27T02:43:02.100Z,18.27
2019-04-27T02:45:30.291Z,31.80
2019-04-27T02:47:56.668Z,28.30
2019-04-27T02:50:24.183Z,18.40
2019-04-27T02:52:50.500Z,17.53
2019-04-27T02:55:19.543Z,18.20
2019-04-27T02:57:45.021Z,19.37
2019-04-27T03:00:13.092Z,18.20
2019-04-27T03:02:41.481Z,19.20
2019-04-27T03:05:12.851Z,22.43
2019-04-27T03:07:36.349Z,26.67
2019-04-27T03:10:04.799Z,21.67
2019-04-27T03:12:33.081Z,20.70
2019-04-27T03:15:04.413Z,23.67
2019-04-27T03:17:35.359Z,20.93
2019-04-27T03:20:06.870Z,19.37
2019-04-27T03:22:39.835Z,20.63
2019-04-27T03:25:10.179Z,19.97
2019-04-27T03:27:44.324Z,19.93
2019-04-27T03:30:12.870Z,19.50
2019-04-27T03:32:43.132Z,19.13
2019-04-27T03:35:12.329Z,19.87
2019-04-27T03:37:35.706Z,22.13
2019-04-27T03:40:04.263Z,21.77
2019-04-27T03:42:31.811Z,24.27
2019-04-27T03:45:00.524Z,24.40
2019-04-27T03:47:30.323Z,23.80
2019-04-27T03:49:56.341Z,22.30
2019-04-27T03:52:31.948Z,18.87
2019-04-27T03:55:00.171Z,20.00
2019-04-27T03:57:34.073Z,18.97
2019-04-27T04:00:02.333Z,18.37
2019-04-27T04:02:30.765Z,19.03
2019-04-27T04:04:59.581Z,18.00
2019-04-27T04:07:26.855Z,18.00
2019-04-27T04:09:53.183Z,17.03
2019-04-27T04:12:30.815Z,18.33
2019-04-27T04:14:59.631Z,16.93
2019-04-27T04:17:30.431Z,17.57
2019-04-27T04:19:58.501Z,18.87
2019-04-27T04:22:25.098Z,17.40
2019-04-27T04:24:51.475Z,17.80
2019-04-27T04:27:21.074Z,17.50
2019-04-27T04:29:49.264Z,17.33
2019-04-27T04:32:15.684Z,17.80
2019-04-27T04:34:42.092Z,18.50
2019-04-27T04:37:09.278Z,18.90
2019-04-27T04:39:35.698Z,19.30
2019-04-27T04:42:05.100Z,18.80
2019-04-27T04:44:36.113Z,20.03
2019-04-27T04:47:04.414Z,20.63
2019-04-27T04:49:30.756Z,22.60
2019-04-27T04:51:59.353Z,21.47
2019-04-27T04:54:25.267Z,21.83
2019-04-27T04:56:51.621Z,22.37
2019-04-27T04:59:19.956Z,22.97
2019-04-27T05:01:46.164Z,25.67
2019-04-27T05:04:12.569Z,27.70
2019-04-27T05:06:39.063Z,28.57
2019-04-27T05:09:05.507Z,31.20
2019-04-27T05:11:33.285Z,30.07
2019-04-27T05:14:01.534Z,30.07
2019-04-27T05:16:28.651Z,34.80
2019-04-27T05:18:55.053Z,32.63
2019-04-27T05:21:23.320Z,33.37
2019-04-27T05:23:49.724Z,34.80
2019-04-27T05:26:16.124Z,35.40
2019-04-27T05:28:42.457Z,35.57
2019-04-27T05:31:09.175Z,38.17
2019-04-27T05:33:35.574Z,37.47
2019-04-27T05:36:01.991Z,36.63
2019-04-27T05:38:29.512Z,39.37
2019-04-27T05:40:56.003Z,39.47
2019-04-27T05:43:25.660Z,39.43
2019-04-27T05:46:39.677Z,44.27
2019-04-27T05:49:09.561Z,42.20
2019-04-27T05:51:37.114Z,42.90
2019-04-27T05:54:04.308Z,42.23
2019-04-27T05:56:30.629Z,44.87
2019-04-27T05:59:00.295Z,41.60
2019-04-27T06:01:26.852Z,44.57
2019-04-27T06:03:53.220Z,45.13
2019-04-27T06:06:19.720Z,44.47
2019-04-27T06:08:46.239Z,42.37
2019-04-27T06:11:12.624Z,44.03
2019-04-27T06:13:39.306Z,43.27
2019-04-27T06:16:05.779Z,42.70
2019-04-27T06:18:32.150Z,43.70
2019-04-27T06:20:59.849Z,42.70
2019-04-27T06:23:28.942Z,41.33
2019-04-27T06:25:55.570Z,42.93
2019-04-27T06:28:21.945Z,38.83
2019-04-27T06:30:49.214Z,43.13
2019-04-27T06:33:29.220Z,40.50
2019-04-27T06:35:43.884Z,39.87
2019-04-27T06:38:11.610Z,41.10
2019-04-27T06:40:39.243Z,41.17
2019-04-27T06:43:05.659Z,37.97
2019-04-27T06:45:32.049Z,36.17
2019-04-27T06:47:59.536Z,37.77
2019-04-27T06:50:26.071Z,35.67
2019-04-27T06:52:52.476Z,35.37
2019-04-27T06:55:18.983Z,35.33
2019-04-27T06:57:45.236Z,36.67
2019-04-27T07:00:11.915Z,33.70
2019-04-27T07:02:39.209Z,33.97
2019-04-27T07:05:05.952Z,34.63
2019-04-27T07:07:32.344Z,32.63
2019-04-27T07:09:59.148Z,34.27
2019-04-27T07:12:25.658Z,32.23
2019-04-27T07:14:54.959Z,33.97
2019-04-27T07:17:20.208Z,34.93
2019-04-27T07:19:46.600Z,32.00
2019-04-27T07:22:12.963Z,28.57
2019-04-27T07:24:40.642Z,29.57
2019-04-27T07:27:07.170Z,27.93
2019-04-27T07:29:33.576Z,29.93
2019-04-27T07:31:59.907Z,30.50
2019-04-27T07:34:26.340Z,28.70
2019-04-27T07:36:52.684Z,27.90
2019-04-27T07:39:19.440Z,27.73
2019-04-27T07:41:45.888Z,26.90
2019-04-27T07:44:14.308Z,24.93
2019-04-27T07:46:40.672Z,26.27
2019-04-27T07:49:07.061Z,28.23
2019-04-27T07:51:34.476Z,29.47
2019-04-27T07:54:00.895Z,26.70
2019-04-27T07:56:29.057Z,26.87
2019-04-27T07:58:55.483Z,28.80
2019-04-27T08:01:21.848Z,26.43
2019-04-27T08:03:49.087Z,28.07
2019-04-27T08:06:15.716Z,27.57
2019-04-27T08:08:42.096Z,25.73
2019-04-27T08:11:08.867Z,25.87
2019-04-27T08:13:39.375Z,26.00
2019-04-27T08:16:06.053Z,25.63
2019-04-27T08:18:32.539Z,25.07
2019-04-27T08:20:59.133Z,23.43
2019-04-27T08:23:25.599Z,25.13
2019-04-27T08:25:51.941Z,23.93
2019-04-27T08:28:32.383Z,25.00
2019-04-27T08:31:03.462Z,26.40
2019-04-27T08:33:29.923Z,25.73
2019-04-27T08:35:56.355Z,24.73
2019-04-27T08:38:22.769Z,24.20
2019-04-27T08:40:49.517Z,26.57
2019-04-27T08:43:15.948Z,32.67
2019-04-27T08:45:42.560Z,27.40
2019-04-27T08:48:09.424Z,25.40
2019-04-27T08:50:37.785Z,27.13
2019-04-27T08:53:04.253Z,26.07
2019-04-27T08:55:30.655Z,24.90
2019-04-27T08:57:58.614Z,25.00
2019-04-27T09:00:25.230Z,26.03
2019-04-27T09:02:51.661Z,26.43
2019-04-27T09:05:21.167Z,25.97
2019-04-27T09:07:52.745Z,22.57
2019-04-27T09:10:39.507Z,25.30
2019-04-27T09:13:10.591Z,25.77
2019-04-27T09:15:53.764Z,25.30
2019-04-27T09:18:22.063Z,25.83
2019-04-27T09:20:52.878Z,25.63
2019-04-27T09:23:19.508Z,24.07
2019-04-27T09:25:45.849Z,21.37
2019-04-27T09:28:12.273Z,22.40
2019-04-27T09:30:39.379Z,21.90
2019-04-27T09:33:06.017Z,20.83
2019-04-27T09:35:32.402Z,19.80
2019-04-27T09:37:58.802Z,20.80
2019-04-27T09:40:26.759Z,19.90
2019-04-27T09:42:53.382Z,19.63
2019-04-27T09:45:19.778Z,20.10
2019-04-27T09:47:46.854Z,19.30
2019-04-27T09:50:13.828Z,20.27
2019-04-27T09:52:40.248Z,18.83
2019-04-27T09:55:08.510Z,18.13
2019-04-27T09:57:36.454Z,19.20
2019-04-27T10:00:08.774Z,18.77
2019-04-27T10:02:36.636Z,19.37
2019-04-27T10:05:06.011Z,18.93
2019-04-27T10:07:35.761Z,19.07
2019-04-27T10:10:06.467Z,17.83
2019-04-27T10:12:34.480Z,18.43
2019-04-27T10:15:03.554Z,19.73
2019-04-27T10:17:30.348Z,20.03
2019-04-27T10:19:57.046Z,21.23
2019-04-27T10:22:37.376Z,19.00
2019-04-27T10:24:51.826Z,19.30
2019-04-27T10:27:18.220Z,18.97
2019-04-27T10:29:44.598Z,17.70
2019-04-27T10:32:10.995Z,18.27
2019-04-27T10:34:37.361Z,17.93
2019-04-27T10:37:03.909Z,17.17
2019-04-27T10:39:30.320Z,18.20
2019-04-27T10:41:56.727Z,17.03
2019-04-27T10:44:23.113Z,16.53
2019-04-27T10:46:49.547Z,16.63
2019-04-27T10:49:15.985Z,16.80
2019-04-27T10:51:42.400Z,16.90
2019-04-27T10:54:08.794Z,16.60
2019-04-27T10:56:36.104Z,16.77
2019-04-27T10:59:04.063Z,16.43
2019-04-27T11:01:30.941Z,16.47
2019-04-27T11:04:16.183Z,14.93
2019-04-27T11:06:44.574Z,15.83
2019-04-27T11:09:11.374Z,15.17
2019-04-27T11:11:38.975Z,15.63
2019-04-27T11:14:06.907Z,16.20
2019-04-27T11:16:33.304Z,14.90
2019-04-27T11:19:00.004Z,15.50
2019-04-27T11:21:26.442Z,14.87
2019-04-27T11:23:52.829Z,15.50
2019-04-27T11:26:19.262Z,14.70
2019-04-27T11:28:46.348Z,15.07
2019-04-27T11:31:13.461Z,15.93
2019-04-27T11:33:39.938Z,14.00
2019-04-27T11:36:08.204Z,13.50
2019-04-27T11:38:36.487Z,14.10
2019-04-27T11:41:03.024Z,14.40
2019-04-27T11:43:29.572Z,12.63
2019-04-27T11:45:56.251Z,12.80
2019-04-27T11:48:22.785Z,15.10
2019-04-27T11:50:49.232Z,13.53
2019-04-27T11:53:22.627Z,13.53
2019-04-27T11:55:44.691Z,11.53
2019-04-27T11:58:11.087Z,12.83
2019-04-27T12:00:37.518Z,9.97
2019-04-27T12:03:03.986Z,10.27
2019-04-27T12:05:31.504Z,10.20
2019-04-27T12:07:58.625Z,10.03
2019-04-27T12:10:26.241Z,10.17
2019-04-27T12:12:52.805Z,9.70
2019-04-27T12:15:19.431Z,10.43
2019-04-27T12:17:46.210Z,8.70
2019-04-27T12:20:13.331Z,9.00
2019-04-27T12:22:39.741Z,9.27
2019-04-27T12:25:06.645Z,9.43
2019-04-27T12:27:37.542Z,8.43
2019-04-27T12:30:16.232Z,8.97
2019-04-27T12:32:42.782Z,9.27
2019-04-27T12:35:09.547Z,8.27
2019-04-27T12:37:35.902Z,8.17
2019-04-27T12:40:05.927Z,9.43
2019-04-27T12:42:32.457Z,10.70
2019-04-27T12:44:58.834Z,11.03
2019-04-27T12:47:26.310Z,10.57
2019-04-27T12:49:52.795Z,9.63
2019-04-27T12:52:20.733Z,10.67
2019-04-27T12:54:49.124Z,9.80
2019-04-27T12:57:23.244Z,9.90
2019-04-27T12:59:57.328Z,11.00
2019-04-27T13:02:27.171Z,10.77
2019-04-27T13:04:53.625Z,10.57
2019-04-27T13:07:20.057Z,10.80
2019-04-27T13:09:46.541Z,11.67
2019-04-27T13:12:12.914Z,11.70
2019-04-27T13:14:39.333Z,13.10
2019-04-27T13:17:06.257Z,16.30
2019-04-27T13:19:32.808Z,12.33
2019-04-27T13:21:59.246Z,13.60
2019-04-27T13:24:26.072Z,12.40
2019-04-27T13:26:55.864Z,12.77
2019-04-27T13:29:22.522Z,13.90
2019-04-27T13:31:49.538Z,13.97
2019-04-27T13:34:16.436Z,13.93
2019-04-27T13:36:43.102Z,15.60
2019-04-27T13:39:10.096Z,12.70
2019-04-27T13:41:37.344Z,15.23
2019-04-27T13:44:03.902Z,13.23
2019-04-27T13:46:49.090Z,13.53
2019-04-27T13:49:26.339Z,14.30
2019-04-27T13:51:55.596Z,13.30
2019-04-27T13:54:28.362Z,13.60
2019-04-27T13:56:52.406Z,14.17
2019-04-27T13:59:19.002Z,12.90
2019-04-27T14:01:45.667Z,11.40
2019-04-27T14:04:13.850Z,11.80
2019-04-27T14:06:41.988Z,11.17
2019-04-27T14:09:09.337Z,12.50
2019-04-27T14:11:39.345Z,13.97
2019-04-27T14:14:06.215Z,13.23
2019-04-27T14:16:32.825Z,13.83
2019-04-27T14:18:59.682Z,11.20
2019-04-27T14:21:26.205Z,13.83
2019-04-27T14:23:52.824Z,13.57
2019-04-27T14:26:19.474Z,17.60
2019-04-27T14:28:48.042Z,19.30
2019-04-27T14:31:15.128Z,16.70
2019-04-27T14:33:42.105Z,22.40
2019-04-27T14:36:08.541Z,47.53
2019-04-27T14:38:35.058Z,38.93
2019-04-27T14:41:01.627Z,17.60
2019-04-27T14:43:28.640Z,18.93
2019-04-27T14:45:55.248Z,34.60
2019-04-27T14:48:21.744Z,18.80
2019-04-27T14:50:48.590Z,19.67
2019-04-27T14:53:15.039Z,12.47
2019-04-27T14:55:42.513Z,12.70
2019-04-27T14:58:09.025Z,12.30
2019-04-27T15:00:35.559Z,18.23
2019-04-27T15:03:02.296Z,17.00
2019-04-27T15:05:28.722Z,15.23
2019-04-27T15:07:55.345Z,14.73
2019-04-27T15:10:28.581Z,13.57
2019-04-27T15:12:51.009Z,10.60
2019-04-27T15:15:17.642Z,11.73
2019-04-27T15:17:44.040Z,12.20
2019-04-27T15:20:31.089Z,11.77
2019-04-27T15:22:58.532Z,12.30
2019-04-27T15:25:25.972Z,11.87
2019-04-27T15:27:54.312Z,13.57
2019-04-27T15:30:22.594Z,13.57
2019-04-27T15:32:51.048Z,13.83
2019-04-27T15:35:35.527Z,12.70
2019-04-27T15:38:12.806Z,12.43
2019-04-27T15:40:50.563Z,19.17
2019-04-27T15:43:18.099Z,12.67
2019-04-27T15:45:44.399Z,15.33
2019-04-27T15:48:10.858Z,15.27
2019-04-27T15:50:38.733Z,15.23
2019-04-27T15:53:09.648Z,18.73
2019-04-27T15:55:36.929Z,17.37
2019-04-27T15:58:01.722Z,13.67
2019-04-27T16:00:29.928Z,17.50
2019-04-27T16:02:56.361Z,16.17
2019-04-27T16:05:23.602Z,16.67
2019-04-27T16:07:51.272Z,12.17
2019-04-27T16:10:19.995Z,13.93
2019-04-27T16:13:02.601Z,16.47
2019-04-27T16:15:17.509Z,16.97
2019-04-27T16:17:51.044Z,9.70
2019-04-27T16:20:14.209Z,11.10
2019-04-27T16:22:40.985Z,9.67
2019-04-27T16:25:08.395Z,8.77
2019-04-27T16:27:35.165Z,11.83
2019-04-27T16:30:09.592Z,12.80
2019-04-27T16:32:30.085Z,10.47
2019-04-27T16:34:56.514Z,11.83
2019-04-27T16:37:25.012Z,7.20
2019-04-27T16:39:51.525Z,9.47
2019-04-27T16:42:18.641Z,8.23
2019-04-27T16:44:49.517Z,8.37
2019-04-27T16:47:18.832Z,9.33
2019-04-27T16:49:44.152Z,11.20
2019-04-27T16:52:16.022Z,10.77
2019-04-27T16:54:39.597Z,7.10
2019-04-27T16:57:07.916Z,8.90
2019-04-27T16:59:43.302Z,7.53
2019-04-27T17:02:02.810Z,9.83
2019-04-27T17:04:31.432Z,11.47
2019-04-27T17:06:59.031Z,13.40
2019-04-27T17:09:25.636Z,10.40
2019-04-27T17:11:52.087Z,7.50
2019-04-27T17:14:29.214Z,10.07
2019-04-27T17:17:03.506Z,7.20
2019-04-27T17:19:30.726Z,9.67
2019-04-27T17:21:57.285Z,9.37
2019-04-27T17:24:42.235Z,7.30
2019-04-27T17:27:05.932Z,9.27
2019-04-27T17:29:35.398Z,10.70
2019-04-27T17:32:02.162Z,13.93
2019-04-27T17:34:29.758Z,6.87
2019-04-27T17:36:56.688Z,8.90
2019-04-27T17:39:24.851Z,9.53
2019-04-27T17:41:52.760Z,11.13
2019-04-27T17:44:23.112Z,10.50
2019-04-27T17:46:51.166Z,8.50
2019-04-27T17:49:16.331Z,10.67
2019-04-27T17:51:44.301Z,10.90
2019-04-27T17:54:11.466Z,14.30
2019-04-27T17:56:48.224Z,15.77
2019-04-27T17:59:10.239Z,15.07
2019-04-27T18:01:34.534Z,11.97
2019-04-27T18:04:03.076Z,13.37
2019-04-27T18:06:29.779Z,14.63
2019-04-27T18:09:00.813Z,17.27
2019-04-27T18:11:24.710Z,16.20
2019-04-27T18:13:51.229Z,14.83
2019-04-27T18:16:19.073Z,24.23
2019-04-27T18:18:53.591Z,15.43
2019-04-27T18:21:21.928Z,19.07
2019-04-27T18:23:55.312Z,21.07
2019-04-27T18:26:23.169Z,19.57
2019-04-27T18:28:53.904Z,18.73
2019-04-27T18:31:20.157Z,19.07
2019-04-27T18:33:46.836Z,23.47
2019-04-27T18:36:14.261Z,21.67
2019-04-27T18:38:42.234Z,25.63
2019-04-27T18:41:11.675Z,27.87
2019-04-27T18:43:39.556Z,22.47
2019-04-27T18:46:06.561Z,19.77
2019-04-27T18:48:44.892Z,18.50
2019-04-27T18:51:26.874Z,13.03
2019-04-27T18:53:58.830Z,11.80
2019-04-27T18:56:22.604Z,10.20
2019-04-27T18:58:49.080Z,9.77
2019-04-27T19:01:15.529Z,10.37
2019-04-27T19:03:41.913Z,10.27
2019-04-27T19:06:08.542Z,9.30
2019-04-27T19:08:35.275Z,8.83
2019-04-27T19:11:04.673Z,11.93
2019-04-27T19:13:30.082Z,11.40
2019-04-27T19:15:57.926Z,12.37
2019-04-27T19:18:24.983Z,9.77
2019-04-27T19:20:51.392Z,7.83
2019-04-27T19:23:17.821Z,7.83
2019-04-27T19:26:02.885Z,7.43
2019-04-27T19:28:39.202Z,8.30
2019-04-27T19:31:10.393Z,8.73
2019-04-27T19:33:36.893Z,8.30
2019-04-27T19:36:03.464Z,6.73
2019-04-27T19:38:29.998Z,6.90
2019-04-27T19:40:56.531Z,8.10
2019-04-27T19:43:23.060Z,7.37
2019-04-27T19:45:49.498Z,6.87
2019-04-27T19:48:15.965Z,6.17
2019-04-27T19:50:42.514Z,5.23
2019-04-27T19:53:09.759Z,5.00
2019-04-27T19:55:38.944Z,5.80
2019-04-27T19:58:05.877Z,6.13
2019-04-27T20:00:34.261Z,5.57
2019-04-27T20:03:01.857Z,5.83
2019-04-27T20:05:31.243Z,4.93
2019-04-27T20:07:58.936Z,4.50
2019-04-27T20:10:25.313Z,6.77
2019-04-27T20:12:51.703Z,6.83
2019-04-27T20:15:18.083Z,5.57
2019-04-27T20:17:44.509Z,5.53
2019-04-27T20:20:11.034Z,4.63
2019-04-27T20:22:37.434Z,6.10
2019-04-27T20:25:04.579Z,9.87
2019-04-27T20:27:45.051Z,9.90
2019-04-27T20:30:00.650Z,8.63
2019-04-27T20:32:31.427Z,7.17
2019-04-27T20:34:57.924Z,6.17
2019-04-27T20:37:24.326Z,6.87
2019-04-27T20:39:51.477Z,8.57
2019-04-27T20:42:18.079Z,7.50
2019-04-27T20:44:44.491Z,7.30
2019-04-27T20:47:10.893Z,6.57
2019-04-27T20:49:37.306Z,6.00
2019-04-27T20:52:05.596Z,6.13
2019-04-27T20:54:32.617Z,8.10
2019-04-27T20:56:59.149Z,8.93
2019-04-27T20:59:26.611Z,10.00
2019-04-27T21:01:53.013Z,6.40
2019-04-27T21:04:21.309Z,5.70
2019-04-27T21:06:52.704Z,6.43
2019-04-27T21:09:21.164Z,8.37
2019-04-27T21:11:48.316Z,8.70
2019-04-27T21:14:14.942Z,8.53
2019-04-27T21:16:42.012Z,8.00
2019-04-27T21:19:08.384Z,7.43
2019-04-27T21:21:34.795Z,7.70
2019-04-27T21:24:02.691Z,8.23
2019-04-27T21:26:29.090Z,8.00
2019-04-27T21:28:55.476Z,7.47
2019-04-27T21:31:21.849Z,8.83
2019-04-27T21:33:48.227Z,7.73
2019-04-27T21:36:14.584Z,7.20
2019-04-27T21:38:42.844Z,7.37
2019-04-27T21:41:09.195Z,7.10
2019-04-27T21:43:35.598Z,6.37
2019-04-27T21:46:01.968Z,7.50
2019-04-27T21:48:28.491Z,7.93
2019-04-27T21:50:54.856Z,6.07
2019-04-27T21:53:32.302Z,6.40
2019-04-27T21:56:01.305Z,6.47
2019-04-27T21:58:28.848Z,5.63
2019-04-27T22:01:00.786Z,5.67
2019-04-27T22:03:29.126Z,5.50
2019-04-27T22:05:55.532Z,5.70
2019-04-27T22:08:21.994Z,5.27
2019-04-27T22:10:48.426Z,4.97
2019-04-27T22:13:14.860Z,4.77
2019-04-27T22:15:41.686Z,6.13
2019-04-27T22:18:08.161Z,5.13
2019-04-27T22:20:35.196Z,5.33
2019-04-27T22:23:03.507Z,6.33
2019-04-27T22:25:35.849Z,6.50
2019-04-27T22:28:02.441Z,7.40
2019-04-27T22:30:28.867Z,6.87
2019-04-27T22:32:55.213Z,7.73
2019-04-27T22:35:22.453Z,7.50
2019-04-27T22:37:48.980Z,7.50
2019-04-27T22:40:21.391Z,8.53
2019-04-27T22:43:06.655Z,8.33
2019-04-27T22:45:35.058Z,7.07
2019-04-27T22:48:01.458Z,5.13
2019-04-27T22:50:27.890Z,6.03
2019-04-27T22:52:54.266Z,7.33
2019-04-27T22:55:21.996Z,7.20
2019-04-27T22:57:51.590Z,6.27
2019-04-27T23:00:35.417Z,7.37
2019-04-27T23:03:03.785Z,6.67
2019-04-27T23:05:31.915Z,7.10
2019-04-27T23:07:58.761Z,6.10
2019-04-27T23:10:25.541Z,7.30
2019-04-27T23:12:52.173Z,6.40
2019-04-27T23:15:20.616Z,6.03
2019-04-27T23:17:48.966Z,6.03
2019-04-27T23:20:15.433Z,6.27
2019-04-27T23:22:41.865Z,5.90
2019-04-27T23:25:08.370Z,5.87
2019-04-27T23:27:34.726Z,6.00
2019-04-27T23:30:01.546Z,6.90
2019-04-27T23:32:48.045Z,6.13
2019-04-27T23:35:14.412Z,6.13
2019-04-27T23:37:40.819Z,6.80
2019-04-27T23:40:07.662Z,6.10
2019-04-27T23:42:34.065Z,7.83
2019-04-27T23:45:00.395Z,8.67
2019-04-27T23:47:26.840Z,8.53
2019-04-27T23:49:53.159Z,9.30
2019-04-27T23:52:21.453Z,10.63
2019-04-27T23:54:47.798Z,10.20
2019-04-27T23:57:14.160Z,11.20
2019-04-27T23:59:41.659Z,10.57
